Ana Sayfa
METAR-TAF:

METAR-TAF

Havaalanları :

Coffeyville, Kansas, Amerika Birleşik Devletleri

Enlem: 37-05-28N, Boylam: 095-33-59W, yükseklik: 229 m

Güncel hava durumu gözlemi

Rapor saat 17:52 UTC de 51 dakika önce yapıldı.
Rüzgar kuzeydan 12 kt
Sıcaklık 8°C
Nem 93%
Basınç 1003 hPa
Görüş mesafesi: 8.0 km
1100 ft yükseklikte çok bulutlu
Pus

METAR: KCFV 241752Z AUTO 35012KT 5SM BR OVC011 08/07 A2961 RMK AO2 SLP028 60066 T00830067 10094 20078 53018

Saat: 12:43 (18:43 UTC)


TAF: eksik

4.000'den fazla havaalanı için hava durumu gözlemleri ve tahminleri (METAR ve TAF raporları).

Kullanılabilir istasyonlar harita üzerinde sarı ve kırmızı noktalarla gösterilir.

İstasyonun adını görmek için fareyi noktanın üzerinde gezdirin.

Sonrasında hava gözlem ve tahminlerini görmek için tıklayın.

Haritayı değiştirmek için: yaklaştırmak için siyah artı işaretli yeşil düğmeye ve uzaklaştırmak için de eksi işaretli düğmeye hızla tıklayın; bitişik haritalar için yeşil okları kullanın.


METAR-TAF: